createdAt,value
2022-09-27T00:02:01.159Z,94829.88
2022-09-27T00:04:35.976Z,94818.00
2022-09-27T00:07:10.423Z,94810.69
2022-09-27T00:09:45.326Z,94817.97
2022-09-27T00:12:18.805Z,94809.53
2022-09-27T00:14:51.923Z,94819.13
2022-09-27T00:17:32.341Z,94816.44
2022-09-27T00:20:12.036Z,94811.06
2022-09-27T00:22:50.192Z,94809.53
2022-09-27T00:25:23.046Z,94809.53
2022-09-27T00:27:57.394Z,94813.31
2022-09-27T00:30:30.741Z,94802.59
2022-09-27T00:33:05.614Z,94798.75
2022-09-27T00:35:41.262Z,94789.94
2022-09-27T00:38:16.438Z,94794.53
2022-09-27T00:40:53.339Z,94797.97
2022-09-27T00:43:44.211Z,94791.44
2022-09-27T00:46:26.240Z,94781.09
2022-09-27T00:49:08.092Z,94780.34
2022-09-27T00:51:43.692Z,94786.47
2022-09-27T00:54:28.361Z,94775.34
2022-09-27T00:57:04.634Z,94769.97
2022-09-27T00:59:45.707Z,94774.59
2022-09-27T01:02:22.658Z,94778.41
2022-09-27T01:04:59.940Z,94781.50
2022-09-27T01:07:40.549Z,94779.19
2022-09-27T01:10:20.685Z,94777.66
2022-09-27T01:13:02.299Z,94769.59
2022-09-27T01:15:49.358Z,94780.34
2022-09-27T01:18:32.224Z,94777.66
2022-09-27T01:21:53.363Z,94763.47
2022-09-27T01:24:56.937Z,94763.84
2022-09-27T01:28:21.497Z,94774.56
2022-09-27T01:31:07.043Z,94773.41
2022-09-27T01:33:49.247Z,94761.91
2022-09-27T01:36:32.661Z,94776.09
2022-09-27T01:39:23.423Z,94772.28
2022-09-27T01:42:04.072Z,94767.31
2022-09-27T01:44:42.410Z,94767.31
2022-09-27T01:47:23.594Z,94766.53
2022-09-27T01:50:04.441Z,94759.63
2022-09-27T01:52:42.519Z,94766.16
2022-09-27T01:55:20.511Z,94771.16
2022-09-27T01:58:00.463Z,94759.22
2022-09-27T02:00:35.198Z,94765.38
2022-09-27T02:03:14.719Z,94766.56
2022-09-27T02:05:54.132Z,94776.53
2022-09-27T02:08:40.002Z,94779.22
2022-09-27T02:11:15.102Z,94783.81
2022-09-27T02:13:57.099Z,94781.91
2022-09-27T02:16:44.483Z,94789.56
2022-09-27T02:19:36.657Z,94791.09
2022-09-27T02:22:20.107Z,94793.41
2022-09-27T02:25:02.780Z,94797.63
2022-09-27T02:27:43.620Z,94801.03
2022-09-27T02:30:17.668Z,94799.13
2022-09-27T02:32:50.884Z,94800.66
2022-09-27T02:35:29.703Z,94792.97
2022-09-27T02:38:03.653Z,94797.59
2022-09-27T02:40:44.380Z,94786.84
2022-09-27T02:43:21.177Z,94786.84
2022-09-27T02:46:10.135Z,94787.22
2022-09-27T02:48:55.098Z,94804.47
2022-09-27T02:51:39.570Z,94802.53
2022-09-27T02:54:20.913Z,94799.09
2022-09-27T02:57:07.756Z,94804.06
2022-09-27T02:59:54.285Z,94809.81
2022-09-27T03:02:38.990Z,94813.66
2022-09-27T03:05:18.834Z,94807.88
2022-09-27T03:07:57.524Z,94822.44
2022-09-27T03:10:31.049Z,94820.16
2022-09-27T03:13:06.506Z,94819.38
2022-09-27T03:15:41.064Z,94821.31
2022-09-27T03:18:14.386Z,94826.66
2022-09-27T03:20:47.434Z,94820.53
2022-09-27T03:23:22.572Z,94827.81
2022-09-27T03:25:56.276Z,94811.72
2022-09-27T03:28:30.130Z,94823.59
2022-09-27T03:31:06.282Z,94820.94
2022-09-27T03:33:39.873Z,94821.31
2022-09-27T03:36:13.451Z,94827.47
2022-09-27T03:38:48.273Z,94853.91
2022-09-27T03:41:22.420Z,94850.84
2022-09-27T03:43:58.164Z,94846.25
2022-09-27T03:46:31.236Z,94831.66
2022-09-27T03:49:08.092Z,94839.31
2022-09-27T03:51:43.095Z,94836.25
2022-09-27T03:54:19.787Z,94839.31
2022-09-27T03:56:53.648Z,94843.84
2022-09-27T03:59:27.478Z,94852.25
2022-09-27T04:02:02.723Z,94849.53
2022-09-27T04:04:35.810Z,94845.28
2022-09-27T04:07:10.749Z,94852.53
2022-09-27T04:09:47.053Z,94849.78
2022-09-27T04:12:22.781Z,94853.94
2022-09-27T04:14:56.459Z,94858.84
2022-09-27T04:17:30.014Z,94859.50
2022-09-27T04:20:07.031Z,94849.88
2022-09-27T04:22:42.574Z,94852.53
2022-09-27T04:25:20.152Z,94862.78
2022-09-27T04:27:55.529Z,94858.53
2022-09-27T04:30:30.376Z,94853.53
2022-09-27T04:33:05.301Z,94860.00
2022-09-27T04:35:57.865Z,94865.31
2022-09-27T04:38:36.285Z,94859.91
2022-09-27T04:41:14.075Z,94850.69
2022-09-27T04:43:48.139Z,94862.13
2022-09-27T04:46:26.057Z,94862.47
2022-09-27T04:49:05.506Z,94864.34
2022-09-27T04:51:42.928Z,94854.38
2022-09-27T04:54:19.014Z,94852.06
2022-09-27T04:56:53.788Z,94859.69
2022-09-27T04:59:28.968Z,94853.94
2022-09-27T05:02:02.217Z,94868.06
2022-09-27T05:04:38.167Z,94869.97
2022-09-27T05:07:11.495Z,94869.59
2022-09-27T05:09:45.579Z,94870.75
2022-09-27T05:12:20.603Z,94870.81
2022-09-27T05:14:57.570Z,94865.09
2022-09-27T05:17:45.651Z,94875.50
2022-09-27T05:20:19.568Z,94886.25
2022-09-27T05:22:54.715Z,94889.38
2022-09-27T05:25:33.170Z,94896.72
2022-09-27T05:28:09.287Z,94910.16
2022-09-27T05:30:42.251Z,94904.81
2022-09-27T05:33:17.157Z,94912.16
2022-09-27T05:35:57.016Z,94926.75
2022-09-27T05:38:30.120Z,94920.66
2022-09-27T05:41:04.089Z,94923.00
2022-09-27T05:43:40.302Z,94925.31
2022-09-27T05:46:14.100Z,94937.97
2022-09-27T05:48:57.629Z,94939.59
2022-09-27T05:51:31.606Z,94943.84
2022-09-27T05:54:07.021Z,94950.00
2022-09-27T05:56:40.371Z,94955.75
2022-09-27T05:59:18.522Z,94956.56
2022-09-27T06:01:56.210Z,94957.72
2022-09-27T06:04:29.394Z,94950.06
2022-09-27T06:07:04.008Z,94960.06
2022-09-27T06:09:39.450Z,94968.50
2022-09-27T06:12:15.761Z,94976.97
2022-09-27T06:14:50.409Z,94973.16
2022-09-27T06:17:28.765Z,94978.53
2022-09-27T06:20:02.425Z,94983.94
2022-09-27T06:22:37.749Z,94976.28
2022-09-27T06:25:15.636Z,94983.59
2022-09-27T06:27:49.545Z,94985.13
2022-09-27T06:30:27.205Z,94991.66
2022-09-27T06:33:02.305Z,94989.34
2022-09-27T06:35:37.864Z,94994.00
2022-09-27T06:38:13.597Z,94990.94
2022-09-27T06:40:47.727Z,94998.25
2022-09-27T06:43:22.070Z,94993.25
2022-09-27T06:45:56.736Z,94990.25
2022-09-27T06:48:30.138Z,94997.94
2022-09-27T06:51:04.071Z,94999.88
2022-09-27T06:53:49.196Z,95012.16
2022-09-27T06:56:22.910Z,95019.88
2022-09-27T06:59:17.184Z,95023.69
2022-09-27T07:01:52.980Z,95011.13
2022-09-27T07:04:32.165Z,95023.41
2022-09-27T07:07:13.577Z,95020.75
2022-09-27T07:09:48.253Z,95031.91
2022-09-27T07:12:24.078Z,95039.59
2022-09-27T07:14:58.626Z,95037.72
2022-09-27T07:17:32.936Z,95035.06
2022-09-27T07:20:06.917Z,95041.22
2022-09-27T07:22:49.394Z,95045.06
2022-09-27T07:25:22.740Z,95035.88
2022-09-27T07:27:56.583Z,95043.16
2022-09-27T07:30:32.454Z,95054.31
2022-09-27T07:33:07.691Z,95063.91
2022-09-27T07:35:46.157Z,95064.28
2022-09-27T07:38:19.074Z,95070.78
2022-09-27T07:40:52.798Z,95069.28
2022-09-27T07:43:26.613Z,95076.56
2022-09-27T07:45:59.927Z,95081.16
2022-09-27T07:48:34.824Z,95073.09
2022-09-27T07:51:10.885Z,95079.25
2022-09-27T07:53:45.360Z,95083.84
2022-09-27T07:56:18.211Z,95086.56
2022-09-27T07:58:52.984Z,95088.09
2022-09-27T08:01:26.390Z,95097.75
2022-09-27T08:04:03.714Z,95107.72
2022-09-27T08:06:37.217Z,95107.72
2022-09-27T08:09:11.563Z,95109.25
2022-09-27T08:11:46.187Z,95111.94
2022-09-27T08:14:20.471Z,95108.88
2022-09-27T08:16:55.755Z,95108.13
2022-09-27T08:19:32.156Z,95120.78
2022-09-27T08:22:08.629Z,95112.75
2022-09-27T08:24:42.621Z,95116.97
2022-09-27T08:27:15.909Z,95114.69
2022-09-27T08:29:51.611Z,95112.00
2022-09-27T08:32:25.189Z,95120.81
2022-09-27T08:35:00.105Z,95125.81
2022-09-27T08:37:33.727Z,95124.28
2022-09-27T08:40:09.229Z,95125.47
2022-09-27T08:42:51.137Z,95136.59
2022-09-27T08:45:29.412Z,95123.19
2022-09-27T08:48:09.378Z,95123.97
2022-09-27T08:50:48.033Z,95127.47
2022-09-27T08:53:32.127Z,95122.13
2022-09-27T08:56:10.117Z,95122.91
2022-09-27T08:58:54.060Z,95132.53
2022-09-27T09:01:29.162Z,95127.94
2022-09-27T09:04:05.449Z,95127.63
2022-09-27T09:06:56.025Z,95117.63
2022-09-27T09:09:46.559Z,95115.34
2022-09-27T09:12:48.397Z,95109.94
2022-09-27T09:15:56.488Z,95118.75
2022-09-27T09:18:44.302Z,95108.69
2022-09-27T09:21:26.222Z,95109.78
2022-09-27T09:24:21.962Z,95113.91
2022-09-27T09:27:03.532Z,95120.00
2022-09-27T09:29:58.532Z,95125.34
2022-09-27T09:32:39.874Z,95115.66
2022-09-27T09:35:16.933Z,95111.03
2022-09-27T09:37:54.549Z,95109.44
2022-09-27T09:40:32.688Z,95101.31
2022-09-27T09:43:12.538Z,95106.22
2022-09-27T09:45:48.404Z,95104.53
2022-09-27T09:48:29.830Z,95100.91
2022-09-27T09:51:08.815Z,95093.47
2022-09-27T09:53:48.020Z,95091.75
2022-09-27T09:56:27.780Z,95088.16
2022-09-27T09:59:03.009Z,95088.06
2022-09-27T10:01:40.530Z,95092.91
2022-09-27T10:04:21.138Z,95094.72
2022-09-27T10:06:54.895Z,95094.28
2022-09-27T10:09:29.773Z,95093.06
2022-09-27T10:12:05.272Z,95091.50
2022-09-27T10:14:39.434Z,95087.63
2022-09-27T10:17:16.297Z,95077.50
2022-09-27T10:19:50.214Z,95076.34
2022-09-27T10:22:29.033Z,95087.91
2022-09-27T10:25:03.594Z,95082.50
2022-09-27T10:27:43.620Z,95077.41
2022-09-27T10:30:29.115Z,95076.22
2022-09-27T10:33:06.713Z,95067.28
2022-09-27T10:35:43.619Z,95071.06
2022-09-27T10:38:27.758Z,95067.47
2022-09-27T10:41:18.622Z,95073.66
2022-09-27T10:43:52.895Z,95079.13
2022-09-27T10:46:29.049Z,95067.53
2022-09-27T10:49:17.795Z,95073.69
2022-09-27T10:51:54.686Z,95053.28
2022-09-27T10:54:30.219Z,95057.97
2022-09-27T10:57:06.539Z,95080.84
2022-09-27T10:59:43.870Z,95090.25
2022-09-27T11:02:22.107Z,95114.78
2022-09-27T11:05:13.847Z,95110.03
2022-09-27T11:07:53.508Z,95121.19
2022-09-27T11:10:36.262Z,95135.00
2022-09-27T11:13:14.723Z,95127.97
2022-09-27T11:16:07.446Z,95126.25
2022-09-27T11:18:50.994Z,95130.66
2022-09-27T11:21:45.861Z,95119.50
2022-09-27T11:24:41.871Z,95127.63
2022-09-27T11:27:25.706Z,95119.94
2022-09-27T11:30:09.617Z,95118.44
2022-09-27T11:33:20.302Z,95125.72
2022-09-27T11:36:05.711Z,95129.94
2022-09-27T11:38:54.039Z,95127.25
2022-09-27T11:41:39.072Z,95110.72
2022-09-27T11:44:39.671Z,95108.41
2022-09-27T11:47:21.109Z,95093.78
2022-09-27T11:50:27.840Z,95094.56
2022-09-27T11:53:22.647Z,95082.28
2022-09-27T11:56:07.407Z,95081.09
2022-09-27T11:59:01.198Z,95076.50
2022-09-27T12:01:45.249Z,95080.34
2022-09-27T12:05:01.972Z,95074.53
2022-09-27T12:07:43.764Z,95068.75
2022-09-27T12:10:21.311Z,95066.03
2022-09-27T12:12:58.319Z,95069.09
2022-09-27T12:15:37.907Z,95052.53
2022-09-27T12:18:16.875Z,95062.50
2022-09-27T12:20:51.743Z,95051.34
2022-09-27T12:23:34.559Z,95049.81
2022-09-27T12:26:17.049Z,95048.66
2022-09-27T12:28:57.238Z,95045.56
2022-09-27T12:31:34.588Z,95046.34
2022-09-27T12:34:19.554Z,95027.53
2022-09-27T12:37:00.661Z,95026.03
2022-09-27T12:39:43.563Z,95025.25
2022-09-27T12:42:21.729Z,95017.59
2022-09-27T12:44:57.498Z,95030.72
2022-09-27T12:48:01.567Z,95012.66
2022-09-27T12:50:39.382Z,95026.53
2022-09-27T12:53:20.553Z,95023.06
2022-09-27T12:56:11.821Z,95018.06
2022-09-27T12:59:23.028Z,95015.31
2022-09-27T13:02:23.600Z,95022.94
2022-09-27T13:05:19.053Z,95032.13
2022-09-27T13:08:01.804Z,95028.66
2022-09-27T13:10:48.000Z,95030.56
2022-09-27T13:13:26.292Z,95036.28
2022-09-27T13:16:01.488Z,95023.56
2022-09-27T13:19:01.542Z,95020.06
2022-09-27T13:21:57.616Z,95016.53
2022-09-27T13:24:32.790Z,95018.03
2022-09-27T13:27:37.259Z,95021.44
2022-09-27T13:30:48.548Z,95028.34
2022-09-27T13:33:43.556Z,95022.91
2022-09-27T13:36:31.546Z,95016.72
2022-09-27T13:39:25.993Z,95018.59
2022-09-27T13:42:16.870Z,95013.56
2022-09-27T13:45:18.894Z,95018.16
2022-09-27T13:47:52.465Z,95018.91
2022-09-27T13:50:29.283Z,95015.44
2022-09-27T13:53:08.562Z,95018.13
2022-09-27T13:55:47.253Z,95017.00
2022-09-27T13:58:36.892Z,95018.53
2022-09-27T14:01:21.728Z,95033.97
2022-09-27T14:03:57.426Z,95027.44
2022-09-27T14:06:35.341Z,95011.66
2022-09-27T14:09:19.631Z,95021.28
2022-09-27T14:11:56.374Z,95019.41
2022-09-27T14:14:32.973Z,95020.25
2022-09-27T14:17:10.262Z,95018.00
2022-09-27T14:19:45.197Z,95018.44
2022-09-27T14:22:20.674Z,95021.94
2022-09-27T14:24:56.595Z,95021.59
2022-09-27T14:27:30.894Z,95013.94
2022-09-27T14:30:15.505Z,95019.78
2022-09-27T14:32:51.639Z,95021.34
2022-09-27T14:35:44.365Z,95019.44
2022-09-27T14:38:37.273Z,95032.94
2022-09-27T14:41:12.785Z,95032.56
2022-09-27T14:43:50.761Z,95018.34
2022-09-27T14:46:31.890Z,95023.34
2022-09-27T14:49:14.528Z,95031.47
2022-09-27T14:51:53.983Z,95043.78
2022-09-27T14:54:30.551Z,95043.41
2022-09-27T14:57:08.577Z,95051.50
2022-09-27T14:59:46.263Z,95058.03
2022-09-27T15:02:22.267Z,95055.38
2022-09-27T15:04:58.653Z,95052.28
2022-09-27T15:07:33.215Z,95054.19
2022-09-27T15:10:07.402Z,95057.25
2022-09-27T15:12:48.755Z,95056.47
2022-09-27T15:15:25.282Z,95066.06
2022-09-27T15:18:06.524Z,95050.28
2022-09-27T15:20:54.640Z,95057.19
2022-09-27T15:23:30.041Z,95052.53
2022-09-27T15:26:13.996Z,95064.03
2022-09-27T15:28:52.661Z,95064.00
2022-09-27T15:31:31.822Z,95066.69
2022-09-27T15:34:06.364Z,95065.91
2022-09-27T15:36:55.668Z,95060.50
2022-09-27T15:39:32.526Z,95067.38
2022-09-27T15:42:10.121Z,95059.72
2022-09-27T15:44:49.761Z,95055.09
2022-09-27T15:47:51.323Z,95053.56
2022-09-27T15:50:37.078Z,95047.38
2022-09-27T15:53:11.017Z,95063.13
2022-09-27T15:55:45.808Z,95058.13
2022-09-27T15:58:22.980Z,95053.88
2022-09-27T16:01:02.532Z,95062.31
2022-09-27T16:03:36.226Z,95051.16
2022-09-27T16:06:14.425Z,95059.22
2022-09-27T16:08:47.328Z,95057.66
2022-09-27T16:11:20.781Z,95074.13
2022-09-27T16:13:55.315Z,95074.50
2022-09-27T16:16:29.726Z,95075.63
2022-09-27T16:19:02.821Z,95079.06
2022-09-27T16:21:35.657Z,95096.34
2022-09-27T16:24:08.548Z,95115.09
2022-09-27T16:26:41.962Z,95131.94
2022-09-27T16:29:16.839Z,95121.19
2022-09-27T16:31:53.625Z,95123.06
2022-09-27T16:34:29.973Z,95106.88
2022-09-27T16:37:05.138Z,95117.56
2022-09-27T16:39:39.505Z,95105.97
2022-09-27T16:42:13.837Z,95113.91
2022-09-27T16:44:48.323Z,95114.22
2022-09-27T16:47:22.949Z,95114.16
2022-09-27T16:50:13.943Z,95108.31
2022-09-27T16:52:50.293Z,95111.72
2022-09-27T16:55:24.145Z,95110.09
2022-09-27T16:57:59.927Z,95117.69
2022-09-27T17:00:33.790Z,95117.63
2022-09-27T17:03:09.062Z,95111.78
2022-09-27T17:05:42.334Z,95107.91
2022-09-27T17:08:40.975Z,95108.22
2022-09-27T17:11:16.263Z,95098.19
2022-09-27T17:13:50.353Z,95108.84
2022-09-27T17:16:23.542Z,95120.69
2022-09-27T17:18:58.169Z,95116.03
2022-09-27T17:21:35.674Z,95103.00
2022-09-27T17:24:10.932Z,95118.63
2022-09-27T17:26:44.215Z,95106.75
2022-09-27T17:29:17.737Z,95108.66
2022-09-27T17:31:50.919Z,95102.91
2022-09-27T17:34:25.771Z,95096.38
2022-09-27T17:37:00.853Z,95102.50
2022-09-27T17:39:34.311Z,95099.41
2022-09-27T17:42:10.468Z,95107.78
2022-09-27T17:44:43.378Z,95103.97
2022-09-27T17:47:34.797Z,95107.44
2022-09-27T17:50:28.598Z,95105.13
2022-09-27T17:53:01.886Z,95101.66
2022-09-27T17:55:36.073Z,95107.78
2022-09-27T17:58:23.017Z,95105.53
2022-09-27T18:01:00.333Z,95108.22
2022-09-27T18:03:34.334Z,95108.22
2022-09-27T18:06:10.903Z,95108.63
2022-09-27T18:08:44.640Z,95103.25
2022-09-27T18:11:20.610Z,95103.69
2022-09-27T18:13:53.735Z,95093.72
2022-09-27T18:16:29.997Z,95100.25
2022-09-27T18:19:04.780Z,95100.63
2022-09-27T18:21:40.027Z,95105.25
2022-09-27T18:24:14.581Z,95112.50
2022-09-27T18:26:49.167Z,95101.09
2022-09-27T18:29:22.669Z,95114.13
2022-09-27T18:31:55.749Z,95111.47
2022-09-27T18:34:30.108Z,95111.88
2022-09-27T18:37:04.754Z,95113.41
2022-09-27T18:39:39.932Z,95120.31
2022-09-27T18:42:12.774Z,95119.56
2022-09-27T18:44:45.921Z,95125.34
2022-09-27T18:47:19.091Z,95125.75
2022-09-27T18:49:52.142Z,95119.63
2022-09-27T18:52:27.093Z,95110.88
2022-09-27T18:55:00.383Z,95099.38
2022-09-27T18:57:34.601Z,95103.59
2022-09-27T19:00:09.434Z,95091.34
2022-09-27T19:02:42.594Z,95076.81
2022-09-27T19:05:15.942Z,95096.28
2022-09-27T19:07:50.527Z,95095.53
2022-09-27T19:10:25.064Z,95108.09
2022-09-27T19:12:58.334Z,95114.97
2022-09-27T19:15:33.767Z,95110.31
2022-09-27T19:18:06.796Z,95106.81
2022-09-27T19:20:39.949Z,95120.59
2022-09-27T19:23:14.589Z,95117.94
2022-09-27T19:25:47.801Z,95120.59
2022-09-27T19:28:21.391Z,95118.69
2022-09-27T19:30:54.560Z,95121.00
2022-09-27T19:33:27.543Z,95124.09
2022-09-27T19:36:01.753Z,95126.81
2022-09-27T19:38:49.414Z,95127.97
2022-09-27T19:41:22.314Z,95130.28
2022-09-27T19:43:56.850Z,95121.94
2022-09-27T19:46:31.095Z,95116.59
2022-09-27T19:49:04.117Z,95125.03
2022-09-27T19:51:37.507Z,95119.72
2022-09-27T19:54:13.637Z,95127.03
2022-09-27T19:56:47.004Z,95121.66
2022-09-27T19:59:22.779Z,95123.97
2022-09-27T20:01:55.811Z,95123.59
2022-09-27T20:04:28.746Z,95121.31
2022-09-27T20:07:01.612Z,95120.19
2022-09-27T20:09:36.973Z,95120.28
2022-09-27T20:12:10.489Z,95116.78
2022-09-27T20:14:43.958Z,95122.16
2022-09-27T20:17:17.587Z,95119.88
2022-09-27T20:19:50.682Z,95118.69
2022-09-27T20:22:23.786Z,95100.66
2022-09-27T20:24:58.044Z,95105.59
2022-09-27T20:27:30.983Z,95107.91
2022-09-27T20:30:04.635Z,95112.84
2022-09-27T20:32:37.798Z,95108.63
2022-09-27T20:35:11.447Z,95106.72
2022-09-27T20:37:44.990Z,95103.69
2022-09-27T20:40:26.971Z,95116.31
2022-09-27T20:43:00.468Z,95106.72
2022-09-27T20:45:39.360Z,95105.22
2022-09-27T20:48:13.538Z,95106.00
2022-09-27T20:50:48.503Z,95105.25
2022-09-27T20:53:23.374Z,95096.06
2022-09-27T20:56:03.066Z,95104.97
2022-09-27T20:58:36.139Z,95099.94
2022-09-27T21:01:10.485Z,95103.06
2022-09-27T21:03:43.817Z,95094.25
2022-09-27T21:06:17.416Z,95088.13
2022-09-27T21:08:51.418Z,95090.03
2022-09-27T21:11:26.283Z,95079.72
2022-09-27T21:13:59.747Z,95077.81
2022-09-27T21:16:36.481Z,95070.97
2022-09-27T21:19:11.290Z,95062.16
2022-09-27T21:21:46.839Z,95063.31
2022-09-27T21:24:22.638Z,95053.34
2022-09-27T21:26:58.420Z,95049.16
2022-09-27T21:29:31.605Z,95040.72
2022-09-27T21:32:04.631Z,95038.81
2022-09-27T21:34:37.972Z,95043.41
2022-09-27T21:37:10.942Z,95041.50
2022-09-27T21:39:43.963Z,95030.78
2022-09-27T21:42:18.639Z,95032.69
2022-09-27T21:44:52.022Z,95029.22
2022-09-27T21:47:25.081Z,95035.31
2022-09-27T21:49:58.239Z,95030.31
2022-09-27T21:52:31.284Z,95033.00
2022-09-27T21:55:06.392Z,95029.53
2022-09-27T21:57:42.548Z,95020.72
2022-09-27T22:00:16.274Z,95028.03
2022-09-27T22:02:49.168Z,95024.97
2022-09-27T22:05:22.870Z,95017.69
2022-09-27T22:08:02.066Z,95021.56
2022-09-27T22:10:35.515Z,95019.63
2022-09-27T22:13:10.634Z,95018.91
2022-09-27T22:15:44.334Z,95023.88
2022-09-27T22:18:17.825Z,95026.19
2022-09-27T22:20:50.879Z,95026.59
2022-09-27T22:23:24.019Z,95030.09
2022-09-27T22:25:57.752Z,95027.41
2022-09-27T22:28:32.375Z,95027.78
2022-09-27T22:31:05.782Z,95026.66
2022-09-27T22:33:41.454Z,95021.31
2022-09-27T22:36:14.475Z,95015.16
2022-09-27T22:38:47.826Z,95012.84
2022-09-27T22:41:21.829Z,94992.53
2022-09-27T22:43:56.721Z,94989.84
2022-09-27T22:46:29.924Z,94989.81
2022-09-27T22:49:03.454Z,95001.66
2022-09-27T22:51:36.365Z,94992.84
2022-09-27T22:54:09.973Z,94990.88
2022-09-27T22:56:43.945Z,94985.16
2022-09-27T22:59:18.637Z,94972.88
2022-09-27T23:01:51.598Z,94966.72
2022-09-27T23:04:25.542Z,94973.59
2022-09-27T23:06:59.209Z,94966.69
2022-09-27T23:09:32.146Z,94955.56
2022-09-27T23:12:05.549Z,94949.06
2022-09-27T23:14:42.624Z,94956.34
2022-09-27T23:17:17.084Z,94942.16
2022-09-27T23:19:50.060Z,94937.56
2022-09-27T23:22:23.139Z,94943.69
2022-09-27T23:24:58.388Z,94940.63
2022-09-27T23:27:46.018Z,94930.25
2022-09-27T23:30:26.364Z,94925.63
2022-09-27T23:32:59.453Z,94921.41
2022-09-27T23:35:33.900Z,94919.09
2022-09-27T23:38:11.410Z,94911.78
2022-09-27T23:40:46.849Z,94906.41
2022-09-27T23:43:20.650Z,94904.91
2022-09-27T23:45:59.840Z,94902.97
2022-09-27T23:48:33.588Z,94892.66
2022-09-27T23:51:08.396Z,94895.69
2022-09-27T23:53:44.704Z,94902.59
2022-09-27T23:56:19.632Z,94888.06
2022-09-27T23:58:52.646Z,94886.53
